sensor_id;sensor_type;location;lat;lon;timestamp;pressure;altitude;pressure_sealevel;temperature;humidity
83273;BME280;73177;51.584;5.188;2023-10-31T00:01:30;99710.47;;;11.74;92.79
83273;BME280;73177;51.584;5.188;2023-10-31T00:03:56;99709.34;;;11.63;92.84
83273;BME280;73177;51.584;5.188;2023-10-31T00:06:21;99735.44;;;11.81;92.09
83273;BME280;73177;51.584;5.188;2023-10-31T00:08:47;99719.59;;;11.83;92.58
83273;BME280;73177;51.584;5.188;2023-10-31T00:11:12;99719.59;;;11.83;92.00
83273;BME280;73177;51.584;5.188;2023-10-31T00:13:37;99721.50;;;11.95;91.79
83273;BME280;73177;51.584;5.188;2023-10-31T00:16:03;99719.78;;;11.80;91.90
83273;BME280;73177;51.584;5.188;2023-10-31T00:18:28;99717.31;;;11.92;91.49
83273;BME280;73177;51.584;5.188;2023-10-31T00:20:53;99738.34;;;11.77;91.71
83273;BME280;73177;51.584;5.188;2023-10-31T00:23:19;99725.53;;;11.86;91.70
83273;BME280;73177;51.584;5.188;2023-10-31T00:25:44;99728.31;;;11.99;91.05
83273;BME280;73177;51.584;5.188;2023-10-31T00:28:09;99718.88;;;11.95;91.05
83273;BME280;73177;51.584;5.188;2023-10-31T00:30:35;99719.47;;;12.00;91.45
83273;BME280;73177;51.584;5.188;2023-10-31T00:33:00;99716.41;;;12.07;90.40
83273;BME280;73177;51.584;5.188;2023-10-31T00:35:26;99717.25;;;12.08;90.51
83273;BME280;73177;51.584;5.188;2023-10-31T00:37:51;99726.75;;;12.10;90.07
83273;BME280;73177;51.584;5.188;2023-10-31T00:40:16;99731.44;;;12.05;90.99
83273;BME280;73177;51.584;5.188;2023-10-31T00:42:42;99723.28;;;12.10;90.95
83273;BME280;73177;51.584;5.188;2023-10-31T00:45:08;99740.94;;;12.22;90.58
83273;BME280;73177;51.584;5.188;2023-10-31T00:47:34;99749.13;;;12.32;91.19
83273;BME280;73177;51.584;5.188;2023-10-31T00:49:59;99747.31;;;12.18;91.50
83273;BME280;73177;51.584;5.188;2023-10-31T00:52:25;99754.06;;;12.08;91.21
83273;BME280;73177;51.584;5.188;2023-10-31T00:54:50;99749.78;;;12.21;90.96
83273;BME280;73177;51.584;5.188;2023-10-31T00:57:15;99764.06;;;12.17;92.10
83273;BME280;73177;51.584;5.188;2023-10-31T00:59:41;99766.47;;;12.06;91.30
83273;BME280;73177;51.584;5.188;2023-10-31T01:02:06;99759.44;;;11.91;92.22
83273;BME280;73177;51.584;5.188;2023-10-31T01:04:31;99750.44;;;11.79;92.08
83273;BME280;73177;51.584;5.188;2023-10-31T01:06:57;99763.16;;;11.87;92.38
83273;BME280;73177;51.584;5.188;2023-10-31T01:09:22;99759.09;;;11.81;92.63
83273;BME280;73177;51.584;5.188;2023-10-31T01:11:47;99770.28;;;12.00;92.60
83273;BME280;73177;51.584;5.188;2023-10-31T01:14:13;99763.75;;;11.92;92.95
83273;BME280;73177;51.584;5.188;2023-10-31T01:16:39;99769.91;;;12.06;91.98
83273;BME280;73177;51.584;5.188;2023-10-31T01:19:05;99770.88;;;12.05;92.00
83273;BME280;73177;51.584;5.188;2023-10-31T01:21:30;99735.69;;;11.92;91.81
83273;BME280;73177;51.584;5.188;2023-10-31T01:23:55;99765.41;;;12.08;91.91
83273;BME280;73177;51.584;5.188;2023-10-31T01:26:20;99761.25;;;12.04;91.57
83273;BME280;73177;51.584;5.188;2023-10-31T01:28:46;99771.19;;;12.29;91.50
83273;BME280;73177;51.584;5.188;2023-10-31T01:31:11;99760.66;;;12.15;91.76
83273;BME280;73177;51.584;5.188;2023-10-31T01:33:36;99741.25;;;12.02;91.73
83273;BME280;73177;51.584;5.188;2023-10-31T01:36:02;99758.72;;;12.03;92.23
83273;BME280;73177;51.584;5.188;2023-10-31T01:38:27;99775.09;;;12.08;92.43
83273;BME280;73177;51.584;5.188;2023-10-31T01:40:56;99777.72;;;12.08;92.45
83273;BME280;73177;51.584;5.188;2023-10-31T01:43:34;99784.94;;;12.04;92.60
83273;BME280;73177;51.584;5.188;2023-10-31T01:46:00;99771.44;;;12.10;92.14
83273;BME280;73177;51.584;5.188;2023-10-31T01:48:28;99780.09;;;12.12;92.96
83273;BME280;73177;51.584;5.188;2023-10-31T01:50:54;99790.75;;;12.25;91.96
83273;BME280;73177;51.584;5.188;2023-10-31T01:53:20;99796.59;;;12.30;91.67
83273;BME280;73177;51.584;5.188;2023-10-31T01:55:45;99795.34;;;12.22;92.57
83273;BME280;73177;51.584;5.188;2023-10-31T01:58:12;99785.09;;;12.17;92.03
83273;BME280;73177;51.584;5.188;2023-10-31T02:00:40;99795.06;;;12.26;92.60
83273;BME280;73177;51.584;5.188;2023-10-31T02:03:07;99784.28;;;12.31;91.58
83273;BME280;73177;51.584;5.188;2023-10-31T02:05:33;99805.09;;;12.20;92.36
83273;BME280;73177;51.584;5.188;2023-10-31T02:08:00;99792.22;;;12.15;92.72
83273;BME280;73177;51.584;5.188;2023-10-31T02:10:25;99790.47;;;12.30;92.47
83273;BME280;73177;51.584;5.188;2023-10-31T02:12:50;99778.53;;;12.24;91.77
83273;BME280;73177;51.584;5.188;2023-10-31T02:15:16;99788.31;;;12.36;91.57
83273;BME280;73177;51.584;5.188;2023-10-31T02:17:41;99793.84;;;12.32;92.07
83273;BME280;73177;51.584;5.188;2023-10-31T02:20:07;99790.03;;;12.37;91.68
83273;BME280;73177;51.584;5.188;2023-10-31T02:22:32;99796.63;;;12.44;92.26
83273;BME280;73177;51.584;5.188;2023-10-31T02:24:58;99788.81;;;12.43;91.48
83273;BME280;73177;51.584;5.188;2023-10-31T02:27:23;99790.41;;;12.45;91.88
83273;BME280;73177;51.584;5.188;2023-10-31T02:29:48;99798.50;;;12.42;91.59
83273;BME280;73177;51.584;5.188;2023-10-31T02:32:14;99791.66;;;12.40;91.82
83273;BME280;73177;51.584;5.188;2023-10-31T02:34:39;99797.13;;;12.51;91.63
83273;BME280;73177;51.584;5.188;2023-10-31T02:37:04;99794.44;;;12.37;91.67
83273;BME280;73177;51.584;5.188;2023-10-31T02:39:30;99817.03;;;12.25;92.68
83273;BME280;73177;51.584;5.188;2023-10-31T02:41:55;99802.44;;;12.35;92.27
83273;BME280;73177;51.584;5.188;2023-10-31T02:44:21;99779.72;;;12.18;92.33
83273;BME280;73177;51.584;5.188;2023-10-31T02:46:46;99824.66;;;12.30;92.84
83273;BME280;73177;51.584;5.188;2023-10-31T02:49:11;99813.91;;;12.18;93.31
83273;BME280;73177;51.584;5.188;2023-10-31T02:51:37;99805.75;;;12.23;92.92
83273;BME280;73177;51.584;5.188;2023-10-31T02:54:02;99813.44;;;12.42;92.96
83273;BME280;73177;51.584;5.188;2023-10-31T02:56:27;99816.50;;;12.34;92.86
83273;BME280;73177;51.584;5.188;2023-10-31T02:58:53;99819.31;;;12.31;92.52
83273;BME280;73177;51.584;5.188;2023-10-31T03:01:19;99824.56;;;12.31;92.98
83273;BME280;73177;51.584;5.188;2023-10-31T03:03:45;99820.78;;;12.21;92.90
83273;BME280;73177;51.584;5.188;2023-10-31T03:06:11;99815.63;;;12.20;92.13
83273;BME280;73177;51.584;5.188;2023-10-31T03:08:36;99826.63;;;12.26;92.15
83273;BME280;73177;51.584;5.188;2023-10-31T03:11:01;99815.69;;;12.18;92.89
83273;BME280;73177;51.584;5.188;2023-10-31T03:13:27;99822.78;;;12.32;92.06
83273;BME280;73177;51.584;5.188;2023-10-31T03:15:52;99843.41;;;12.39;91.99
83273;BME280;73177;51.584;5.188;2023-10-31T03:18:17;99822.03;;;12.30;92.15
83273;BME280;73177;51.584;5.188;2023-10-31T03:20:44;99829.63;;;12.50;91.54
83273;BME280;73177;51.584;5.188;2023-10-31T03:23:13;99840.53;;;12.28;92.25
83273;BME280;73177;51.584;5.188;2023-10-31T03:25:39;99850.22;;;12.28;92.77
83273;BME280;73177;51.584;5.188;2023-10-31T03:28:14;99859.44;;;12.35;92.27
83273;BME280;73177;51.584;5.188;2023-10-31T03:30:42;99849.78;;;12.35;91.92
83273;BME280;73177;51.584;5.188;2023-10-31T03:33:07;99845.75;;;12.44;91.67
83273;BME280;73177;51.584;5.188;2023-10-31T03:35:32;99864.59;;;12.36;91.83
83273;BME280;73177;51.584;5.188;2023-10-31T03:37:58;99854.69;;;12.41;91.60
83273;BME280;73177;51.584;5.188;2023-10-31T03:40:23;99862.47;;;12.43;91.44
83273;BME280;73177;51.584;5.188;2023-10-31T03:42:48;99871.38;;;12.56;91.27
83273;BME280;73177;51.584;5.188;2023-10-31T03:45:14;99874.09;;;12.39;91.88
83273;BME280;73177;51.584;5.188;2023-10-31T03:47:39;99877.53;;;12.25;92.13
83273;BME280;73177;51.584;5.188;2023-10-31T03:50:05;99879.78;;;12.31;92.11
83273;BME280;73177;51.584;5.188;2023-10-31T03:52:30;99880.50;;;12.19;92.15
83273;BME280;73177;51.584;5.188;2023-10-31T03:54:55;99886.16;;;12.27;92.79
83273;BME280;73177;51.584;5.188;2023-10-31T03:57:21;99901.69;;;12.32;92.30
83273;BME280;73177;51.584;5.188;2023-10-31T03:59:46;99902.81;;;12.28;91.87
83273;BME280;73177;51.584;5.188;2023-10-31T04:02:11;99904.53;;;12.29;91.98
83273;BME280;73177;51.584;5.188;2023-10-31T04:04:37;99904.59;;;12.27;91.72
83273;BME280;73177;51.584;5.188;2023-10-31T04:07:02;99890.03;;;12.06;92.56
83273;BME280;73177;51.584;5.188;2023-10-31T04:09:27;99897.56;;;12.12;91.98
83273;BME280;73177;51.584;5.188;2023-10-31T04:11:53;99905.28;;;12.15;92.74
83273;BME280;73177;51.584;5.188;2023-10-31T04:14:18;99913.69;;;12.22;91.93
83273;BME280;73177;51.584;5.188;2023-10-31T04:16:43;99919.59;;;12.09;92.46
83273;BME280;73177;51.584;5.188;2023-10-31T04:19:12;99897.91;;;12.06;92.57
83273;BME280;73177;51.584;5.188;2023-10-31T04:21:38;99923.84;;;12.12;93.10
83273;BME280;73177;51.584;5.188;2023-10-31T04:24:04;99929.88;;;12.14;92.66
83273;BME280;73177;51.584;5.188;2023-10-31T04:26:29;99921.13;;;12.13;92.71
83273;BME280;73177;51.584;5.188;2023-10-31T04:28:54;99923.44;;;12.20;92.58
83273;BME280;73177;51.584;5.188;2023-10-31T04:31:20;99920.47;;;12.10;92.90
83273;BME280;73177;51.584;5.188;2023-10-31T04:33:45;99915.97;;;12.12;92.37
83273;BME280;73177;51.584;5.188;2023-10-31T04:36:11;99929.13;;;12.12;92.77
83273;BME280;73177;51.584;5.188;2023-10-31T04:38:36;99911.97;;;12.05;93.36
83273;BME280;73177;51.584;5.188;2023-10-31T04:41:03;99930.63;;;12.16;92.28
83273;BME280;73177;51.584;5.188;2023-10-31T04:43:29;99933.09;;;12.19;93.22
83273;BME280;73177;51.584;5.188;2023-10-31T04:45:54;99928.09;;;12.30;92.42
83273;BME280;73177;51.584;5.188;2023-10-31T04:48:19;99926.59;;;12.10;92.74
83273;BME280;73177;51.584;5.188;2023-10-31T04:50:45;99928.75;;;12.02;92.87
83273;BME280;73177;51.584;5.188;2023-10-31T04:53:10;99941.50;;;12.26;91.91
83273;BME280;73177;51.584;5.188;2023-10-31T04:55:35;99931.22;;;12.05;92.63
83273;BME280;73177;51.584;5.188;2023-10-31T04:58:01;99949.03;;;12.16;92.63
83273;BME280;73177;51.584;5.188;2023-10-31T05:00:27;99943.44;;;12.06;92.71
83273;BME280;73177;51.584;5.188;2023-10-31T05:02:52;99947.16;;;12.18;92.42
83273;BME280;73177;51.584;5.188;2023-10-31T05:05:17;99949.28;;;12.27;92.12
83273;BME280;73177;51.584;5.188;2023-10-31T05:07:42;99950.06;;;12.13;92.58
83273;BME280;73177;51.584;5.188;2023-10-31T05:10:08;99945.75;;;12.12;92.91
83273;BME280;73177;51.584;5.188;2023-10-31T05:12:33;99930.47;;;12.03;92.98
83273;BME280;73177;51.584;5.188;2023-10-31T05:14:59;99925.38;;;12.00;93.40
83273;BME280;73177;51.584;5.188;2023-10-31T05:17:24;99935.03;;;12.00;93.28
83273;BME280;73177;51.584;5.188;2023-10-31T05:19:49;99930.53;;;12.02;92.62
83273;BME280;73177;51.584;5.188;2023-10-31T05:22:15;99941.41;;;11.96;92.93
83273;BME280;73177;51.584;5.188;2023-10-31T05:24:40;99966.84;;;12.11;92.55
83273;BME280;73177;51.584;5.188;2023-10-31T05:27:05;99962.59;;;12.08;92.41
83273;BME280;73177;51.584;5.188;2023-10-31T05:29:33;99967.94;;;12.07;92.44
83273;BME280;73177;51.584;5.188;2023-10-31T05:31:58;99974.22;;;12.04;93.03
83273;BME280;73177;51.584;5.188;2023-10-31T05:34:23;99970.31;;;12.11;92.28
83273;BME280;73177;51.584;5.188;2023-10-31T05:36:49;99984.34;;;12.12;92.17
83273;BME280;73177;51.584;5.188;2023-10-31T05:39:14;99981.00;;;12.08;92.60
83273;BME280;73177;51.584;5.188;2023-10-31T05:41:40;99991.50;;;12.08;92.62
83273;BME280;73177;51.584;5.188;2023-10-31T05:44:06;99994.09;;;12.26;92.08
83273;BME280;73177;51.584;5.188;2023-10-31T05:46:37;99995.00;;;12.09;91.77
83273;BME280;73177;51.584;5.188;2023-10-31T05:49:03;99995.00;;;12.09;91.56
83273;BME280;73177;51.584;5.188;2023-10-31T05:51:29;100002.47;;;12.01;91.57
83273;BME280;73177;51.584;5.188;2023-10-31T05:53:54;100000.84;;;11.98;91.85
83273;BME280;73177;51.584;5.188;2023-10-31T05:56:20;100005.81;;;11.87;91.90
83273;BME280;73177;51.584;5.188;2023-10-31T05:58:45;99989.84;;;11.75;91.52
83273;BME280;73177;51.584;5.188;2023-10-31T06:01:11;100010.22;;;11.87;91.63
83273;BME280;73177;51.584;5.188;2023-10-31T06:03:36;100019.47;;;11.78;91.62
83273;BME280;73177;51.584;5.188;2023-10-31T06:06:02;100018.88;;;11.89;91.09
83273;BME280;73177;51.584;5.188;2023-10-31T06:08:28;100025.31;;;11.66;92.42
83273;BME280;73177;51.584;5.188;2023-10-31T06:10:55;100027.41;;;11.77;91.82
83273;BME280;73177;51.584;5.188;2023-10-31T06:13:20;100031.97;;;11.73;92.60
83273;BME280;73177;51.584;5.188;2023-10-31T06:15:46;100031.34;;;11.68;92.31
83273;BME280;73177;51.584;5.188;2023-10-31T06:18:12;100017.50;;;11.65;92.03
83273;BME280;73177;51.584;5.188;2023-10-31T06:20:38;100044.72;;;11.81;92.30
83273;BME280;73177;51.584;5.188;2023-10-31T06:23:05;100044.31;;;11.88;92.04
83273;BME280;73177;51.584;5.188;2023-10-31T06:25:30;100042.34;;;11.76;92.43
83273;BME280;73177;51.584;5.188;2023-10-31T06:27:55;100020.44;;;11.59;92.53
83273;BME280;73177;51.584;5.188;2023-10-31T06:30:21;100034.84;;;11.69;93.04
83273;BME280;73177;51.584;5.188;2023-10-31T06:32:46;100049.75;;;11.85;92.29
83273;BME280;73177;51.584;5.188;2023-10-31T06:35:12;100045.94;;;11.91;91.59
83273;BME280;73177;51.584;5.188;2023-10-31T06:37:37;100036.03;;;11.96;91.83
83273;BME280;73177;51.584;5.188;2023-10-31T06:40:04;100050.56;;;11.86;91.88
83273;BME280;73177;51.584;5.188;2023-10-31T06:42:30;100055.00;;;11.85;91.88
83273;BME280;73177;51.584;5.188;2023-10-31T06:44:55;100067.81;;;11.91;91.54
83273;BME280;73177;51.584;5.188;2023-10-31T06:47:20;100057.09;;;11.79;91.56
83273;BME280;73177;51.584;5.188;2023-10-31T06:49:46;100061.88;;;11.88;91.80
83273;BME280;73177;51.584;5.188;2023-10-31T06:52:11;100062.94;;;11.84;91.21
83273;BME280;73177;51.584;5.188;2023-10-31T06:54:36;100072.69;;;11.82;91.94
83273;BME280;73177;51.584;5.188;2023-10-31T06:57:02;100047.03;;;11.87;91.55
83273;BME280;73177;51.584;5.188;2023-10-31T06:59:27;100082.25;;;12.00;90.84
83273;BME280;73177;51.584;5.188;2023-10-31T07:01:54;100079.47;;;12.03;90.87
83273;BME280;73177;51.584;5.188;2023-10-31T07:04:20;100081.88;;;12.07;90.26
83273;BME280;73177;51.584;5.188;2023-10-31T07:06:45;100079.56;;;12.01;90.76
83273;BME280;73177;51.584;5.188;2023-10-31T07:09:10;100083.53;;;12.08;90.31
83273;BME280;73177;51.584;5.188;2023-10-31T07:11:36;100089.84;;;12.06;90.45
83273;BME280;73177;51.584;5.188;2023-10-31T07:14:02;100086.13;;;11.93;91.10
83273;BME280;73177;51.584;5.188;2023-10-31T07:16:28;100088.63;;;11.79;91.59
83273;BME280;73177;51.584;5.188;2023-10-31T07:18:54;100089.66;;;11.76;91.14
83273;BME280;73177;51.584;5.188;2023-10-31T07:21:20;100087.38;;;11.86;91.56
83273;BME280;73177;51.584;5.188;2023-10-31T07:23:45;100095.50;;;11.98;91.26
83273;BME280;73177;51.584;5.188;2023-10-31T07:26:11;100086.97;;;11.93;91.00
83273;BME280;73177;51.584;5.188;2023-10-31T07:28:36;100079.91;;;11.78;91.89
83273;BME280;73177;51.584;5.188;2023-10-31T07:31:02;100095.72;;;11.94;92.35
83273;BME280;73177;51.584;5.188;2023-10-31T07:33:27;100111.25;;;11.98;91.77
83273;BME280;73177;51.584;5.188;2023-10-31T07:35:53;100102.91;;;12.07;91.66
83273;BME280;73177;51.584;5.188;2023-10-31T07:38:19;100109.34;;;12.17;91.71
83273;BME280;73177;51.584;5.188;2023-10-31T07:40:44;100101.16;;;12.24;90.97
83273;BME280;73177;51.584;5.188;2023-10-31T07:43:09;100102.31;;;12.35;91.40
83273;BME280;73177;51.584;5.188;2023-10-31T07:45:35;100088.81;;;12.41;91.23
83273;BME280;73177;51.584;5.188;2023-10-31T07:48:00;100106.38;;;12.56;90.87
83273;BME280;73177;51.584;5.188;2023-10-31T07:50:26;100107.78;;;12.79;89.59
83273;BME280;73177;51.584;5.188;2023-10-31T07:52:52;100098.69;;;12.84;89.07
83273;BME280;73177;51.584;5.188;2023-10-31T07:55:18;100110.94;;;13.01;89.08
83273;BME280;73177;51.584;5.188;2023-10-31T07:57:43;100105.06;;;12.96;89.05
83273;BME280;73177;51.584;5.188;2023-10-31T08:00:14;100100.81;;;13.25;88.30
83273;BME280;73177;51.584;5.188;2023-10-31T08:02:39;100110.25;;;13.13;89.01
83273;BME280;73177;51.584;5.188;2023-10-31T08:05:06;100108.66;;;13.11;88.47
83273;BME280;73177;51.584;5.188;2023-10-31T08:07:32;100121.97;;;12.92;88.92
83273;BME280;73177;51.584;5.188;2023-10-31T08:09:57;100114.50;;;13.00;89.33
83273;BME280;73177;51.584;5.188;2023-10-31T08:12:23;100123.00;;;12.74;88.93
83273;BME280;73177;51.584;5.188;2023-10-31T08:14:48;100108.44;;;12.51;90.59
83273;BME280;73177;51.584;5.188;2023-10-31T08:17:13;100130.63;;;12.78;90.17
83273;BME280;73177;51.584;5.188;2023-10-31T08:19:39;100134.53;;;12.87;88.57
83273;BME280;73177;51.584;5.188;2023-10-31T08:22:04;100133.69;;;12.71;89.43
83273;BME280;73177;51.584;5.188;2023-10-31T08:24:30;100120.25;;;12.60;89.91
83273;BME280;73177;51.584;5.188;2023-10-31T08:26:55;100130.03;;;13.05;88.33
83273;BME280;73177;51.584;5.188;2023-10-31T08:29:21;100143.88;;;12.77;89.53
83273;BME280;73177;51.584;5.188;2023-10-31T08:31:46;100122.63;;;12.49;89.14
83273;BME280;73177;51.584;5.188;2023-10-31T08:34:11;100134.19;;;12.77;88.90
83273;BME280;73177;51.584;5.188;2023-10-31T08:36:37;100129.41;;;12.53;90.35
83273;BME280;73177;51.584;5.188;2023-10-31T08:39:04;100145.22;;;12.68;89.56
83273;BME280;73177;51.584;5.188;2023-10-31T08:41:29;100136.66;;;12.65;89.49
83273;BME280;73177;51.584;5.188;2023-10-31T08:43:55;100155.84;;;12.67;88.83
83273;BME280;73177;51.584;5.188;2023-10-31T08:46:20;100130.78;;;12.75;87.46
83273;BME280;73177;51.584;5.188;2023-10-31T08:48:47;100163.97;;;12.62;88.66
83273;BME280;73177;51.584;5.188;2023-10-31T08:51:12;100165.84;;;12.60;89.14
83273;BME280;73177;51.584;5.188;2023-10-31T08:53:38;100169.03;;;12.98;87.55
83273;BME280;73177;51.584;5.188;2023-10-31T08:56:03;100172.94;;;12.91;88.18
83273;BME280;73177;51.584;5.188;2023-10-31T08:58:29;100172.25;;;12.87;87.93
83273;BME280;73177;51.584;5.188;2023-10-31T09:00:54;100177.19;;;12.94;88.33
83273;BME280;73177;51.584;5.188;2023-10-31T09:03:20;100166.13;;;12.87;87.90
83273;BME280;73177;51.584;5.188;2023-10-31T09:05:45;100184.84;;;12.98;87.78
83273;BME280;73177;51.584;5.188;2023-10-31T09:08:11;100184.41;;;12.90;88.08
83273;BME280;73177;51.584;5.188;2023-10-31T09:10:37;100170.34;;;13.07;86.91
83273;BME280;73177;51.584;5.188;2023-10-31T09:13:05;100205.53;;;13.06;86.72
83273;BME280;73177;51.584;5.188;2023-10-31T09:15:30;100195.09;;;12.87;87.55
83273;BME280;73177;51.584;5.188;2023-10-31T09:17:55;100211.75;;;12.87;87.06
83273;BME280;73177;51.584;5.188;2023-10-31T09:20:27;100195.97;;;12.87;87.13
83273;BME280;73177;51.584;5.188;2023-10-31T09:22:54;100184.31;;;13.99;83.02
83273;BME280;73177;51.584;5.188;2023-10-31T09:25:23;100218.91;;;13.79;84.51
83273;BME280;73177;51.584;5.188;2023-10-31T09:27:57;100129.72;;;13.26;85.07
83273;BME280;73177;51.584;5.188;2023-10-31T09:30:27;100186.13;;;13.38;85.07
83273;BME280;73177;51.584;5.188;2023-10-31T09:32:55;100206.38;;;13.37;86.22
83273;BME280;73177;51.584;5.188;2023-10-31T09:35:23;100226.59;;;13.06;86.71
83273;BME280;73177;51.584;5.188;2023-10-31T09:37:55;100232.72;;;13.22;87.07
83273;BME280;73177;51.584;5.188;2023-10-31T09:40:24;100194.13;;;13.21;85.93
83273;BME280;73177;51.584;5.188;2023-10-31T09:42:50;100228.06;;;12.94;85.91
83273;BME280;73177;51.584;5.188;2023-10-31T09:45:16;100246.22;;;13.16;86.03
83273;BME280;73177;51.584;5.188;2023-10-31T09:47:47;100211.47;;;12.76;86.86
83273;BME280;73177;51.584;5.188;2023-10-31T09:50:13;100190.56;;;12.41;87.13
83273;BME280;73177;51.584;5.188;2023-10-31T09:52:39;100272.06;;;12.92;86.87
83273;BME280;73177;51.584;5.188;2023-10-31T09:55:08;100224.47;;;12.95;86.27
83273;BME280;73177;51.584;5.188;2023-10-31T09:57:40;100256.78;;;12.99;86.25
83273;BME280;73177;51.584;5.188;2023-10-31T10:00:09;100223.97;;;12.56;87.41
83273;BME280;73177;51.584;5.188;2023-10-31T10:02:40;100277.91;;;13.14;86.31
83273;BME280;73177;51.584;5.188;2023-10-31T10:05:09;100224.78;;;13.06;85.30
83273;BME280;73177;51.584;5.188;2023-10-31T10:07:42;100289.50;;;13.58;85.42
83273;BME280;73177;51.584;5.188;2023-10-31T10:10:14;100279.06;;;13.41;84.31
83273;BME280;73177;51.584;5.188;2023-10-31T10:12:43;100254.31;;;13.13;85.37
83273;BME280;73177;51.584;5.188;2023-10-31T10:15:20;100299.13;;;13.59;86.31
83273;BME280;73177;51.584;5.188;2023-10-31T10:17:54;100239.34;;;13.29;85.26
83273;BME280;73177;51.584;5.188;2023-10-31T10:20:25;100240.63;;;13.53;84.05
83273;BME280;73177;51.584;5.188;2023-10-31T10:23:03;100303.47;;;13.92;84.72
83273;BME280;73177;51.584;5.188;2023-10-31T10:25:35;100209.38;;;13.47;82.47
83273;BME280;73177;51.584;5.188;2023-10-31T10:28:03;100216.94;;;13.37;83.40
83273;BME280;73177;51.584;5.188;2023-10-31T10:30:32;100228.78;;;14.21;83.21
83273;BME280;73177;51.584;5.188;2023-10-31T10:33:05;100284.81;;;14.70;82.43
83273;BME280;73177;51.584;5.188;2023-10-31T10:35:39;100272.47;;;14.41;80.21
83273;BME280;73177;51.584;5.188;2023-10-31T10:38:11;100295.03;;;15.04;80.17
83273;BME280;73177;51.584;5.188;2023-10-31T10:40:55;100304.44;;;14.80;80.38
83273;BME280;73177;51.584;5.188;2023-10-31T10:43:24;100303.13;;;14.73;80.14
83273;BME280;73177;51.584;5.188;2023-10-31T10:45:59;100264.84;;;14.80;78.92
83273;BME280;73177;51.584;5.188;2023-10-31T10:48:38;100300.41;;;15.02;79.34
83273;BME280;73177;51.584;5.188;2023-10-31T10:54:07;100290.78;;;14.44;81.58
83273;BME280;73177;51.584;5.188;2023-10-31T10:56:41;100311.97;;;14.58;81.79
83273;BME280;73177;51.584;5.188;2023-10-31T10:59:15;100316.97;;;14.62;82.39
83273;BME280;73177;51.584;5.188;2023-10-31T11:01:46;100280.94;;;14.16;83.61
83273;BME280;73177;51.584;5.188;2023-10-31T11:04:15;100288.38;;;14.09;84.08
83273;BME280;73177;51.584;5.188;2023-10-31T11:06:42;100248.19;;;13.59;84.61
83273;BME280;73177;51.584;5.188;2023-10-31T11:09:09;100318.25;;;14.10;83.81
83273;BME280;73177;51.584;5.188;2023-10-31T11:11:39;100289.03;;;14.13;84.01
83273;BME280;73177;51.584;5.188;2023-10-31T11:14:08;100320.97;;;14.24;83.40
83273;BME280;73177;51.584;5.188;2023-10-31T11:17:01;100254.41;;;14.19;82.50
83273;BME280;73177;51.584;5.188;2023-10-31T11:19:29;100309.44;;;14.41;83.66
83273;BME280;73177;51.584;5.188;2023-10-31T11:22:00;100318.25;;;14.55;82.03
83273;BME280;73177;51.584;5.188;2023-10-31T11:24:33;100297.59;;;14.48;83.13
83273;BME280;73177;51.584;5.188;2023-10-31T11:27:03;100317.00;;;14.76;83.50
83273;BME280;73177;51.584;5.188;2023-10-31T11:29:30;100332.00;;;14.76;80.95
83273;BME280;73177;51.584;5.188;2023-10-31T11:31:56;100308.91;;;14.50;81.91
83273;BME280;73177;51.584;5.188;2023-10-31T11:34:21;100329.09;;;14.51;82.01
83273;BME280;73177;51.584;5.188;2023-10-31T11:36:47;100331.09;;;14.16;83.11
83273;BME280;73177;51.584;5.188;2023-10-31T11:39:13;100326.06;;;14.11;82.31
83273;BME280;73177;51.584;5.188;2023-10-31T11:41:39;100325.94;;;13.99;82.62
83273;BME280;73177;51.584;5.188;2023-10-31T11:44:05;100329.47;;;14.45;82.53
83273;BME280;73177;51.584;5.188;2023-10-31T11:46:30;100336.63;;;13.96;83.10
83273;BME280;73177;51.584;5.188;2023-10-31T11:48:56;100332.53;;;14.37;83.53
83273;BME280;73177;51.584;5.188;2023-10-31T11:51:22;100337.31;;;14.15;82.34
83273;BME280;73177;51.584;5.188;2023-10-31T11:53:50;100333.28;;;14.39;82.58
83273;BME280;73177;51.584;5.188;2023-10-31T11:56:16;100325.88;;;14.46;81.98
83273;BME280;73177;51.584;5.188;2023-10-31T11:58:41;100331.38;;;14.57;82.75
83273;BME280;73177;51.584;5.188;2023-10-31T12:01:08;100327.25;;;14.67;80.74
83273;BME280;73177;51.584;5.188;2023-10-31T12:03:39;100324.06;;;14.76;80.91
83273;BME280;73177;51.584;5.188;2023-10-31T12:06:05;100325.38;;;14.69;81.86
83273;BME280;73177;51.584;5.188;2023-10-31T12:08:33;100321.13;;;14.66;81.71
83273;BME280;73177;51.584;5.188;2023-10-31T12:11:18;100326.91;;;14.87;82.23
83273;BME280;73177;51.584;5.188;2023-10-31T12:13:53;100322.72;;;15.13;80.86
83273;BME280;73177;51.584;5.188;2023-10-31T12:16:23;100313.34;;;15.07;80.51
83273;BME280;73177;51.584;5.188;2023-10-31T12:19:01;100309.00;;;14.92;81.02
83273;BME280;73177;51.584;5.188;2023-10-31T12:21:42;100321.00;;;15.40;80.03
83273;BME280;73177;51.584;5.188;2023-10-31T12:24:10;100310.44;;;15.40;79.36
83273;BME280;73177;51.584;5.188;2023-10-31T12:26:36;100315.13;;;15.63;77.31
83273;BME280;73177;51.584;5.188;2023-10-31T12:29:14;100328.81;;;15.27;78.60
83273;BME280;73177;51.584;5.188;2023-10-31T12:31:51;100339.59;;;15.24;77.75
83273;BME280;73177;51.584;5.188;2023-10-31T12:34:19;100333.06;;;15.16;76.74
83273;BME280;73177;51.584;5.188;2023-10-31T12:36:46;100339.28;;;15.00;78.71
83273;BME280;73177;51.584;5.188;2023-10-31T12:39:13;100338.34;;;15.01;77.63
83273;BME280;73177;51.584;5.188;2023-10-31T12:41:42;100340.16;;;15.01;79.49
83273;BME280;73177;51.584;5.188;2023-10-31T12:44:08;100340.53;;;14.65;79.99
83273;BME280;73177;51.584;5.188;2023-10-31T12:46:40;100352.19;;;14.91;79.15
83273;BME280;73177;51.584;5.188;2023-10-31T12:49:19;100346.81;;;14.78;78.46
83273;BME280;73177;51.584;5.188;2023-10-31T12:52:01;100348.44;;;14.81;78.08
83273;BME280;73177;51.584;5.188;2023-10-31T12:54:28;100341.59;;;14.77;78.53
83273;BME280;73177;51.584;5.188;2023-10-31T12:56:53;100333.47;;;14.36;79.19